Carolina, PR (00986)

9:29 AM AST on January 29, 2015 (GMT -0400)
Manejo de Emergencias Carolina | Change Station
CLOSE
Current Station
Personal Weather Station
Location: Carolina, PR
Elevation: 40 ft
Nearby Weather Stations

Elev 40 ft 18.38 °N, 65.97 °W | Updated 10 minutes ago

Mostly Cloudy
Mostly Cloudy
76.1 °F
Feels Like 77 °F
N
1.0
Wind Variable Wind from West
Gusts 5.0 mph

Today
High -- | Low -- °F
--% Chance of Precip.
Yesterday
High -- | Low -- °F
Precip. -- in
6:58 AM 6:16 PM
Waxing Gibbous, 74% visible
Pressure 30.04 in
Visibility 10.0 miles
Clouds Scattered Clouds 2700 ft
Mostly Cloudy 8000 ft
Heat Index 77 °F
Dew Point 71 °F
Humidity 85%
Rainfall -999.00 in
Snow Depth Not available.
UV 1 out of 12
Pollen Not available.
Air Quality Not available.
Flu Activity Not available.
METAR TJSJ 291256Z 00000KT 10SM SCT027 BKN080 26/22 A3004 RMK AO2 SLP171 T02610222

More Conditions Fewer Conditions

Pressure 30.04 in
Visibility 10.0 miles
Clouds Scattered Clouds 2700 ft
Mostly Cloudy 8000 ft
Heat Index 77 °F
Dew Point 71 °F
Humidity 85%
Rainfall -999.00 in
Snow Depth Not available.
UV 1 out of 12
Pollen Not available.
Air Quality Not available.
Flu Activity Not available.
METAR TJSJ 291256Z 00000KT 10SM SCT027 BKN080 26/22 A3004 RMK AO2 SLP171 T02610222

More Conditions Fewer Conditions

10-Day Weather Forecast

Almanac

Astronomy

Jan. 29, 2015 Rise Set
Actual Time
Civil Twilight
Nautical Twilight
Astronomical Twilight
Moon
Length of Visible Light
Length of Day
Tomorrow will be .
, % of the Moon is Illuminated

Today's Extremes

State Highs State Lows

Community

WunderPhotos

Upload Photos

1,791,426 photos uploaded!

WunderBlogs® & News

Nearby

Air Quality

  Air Quality AQ Index Pollutant
Not available.

Snow Depth

Station Depth Elevation

Earthquake Activity

City Distance Mag. Time & Date
Minimum magnitude displayed is 2.5.

Coastal Water Temperatures

Place Temperature

Nearby Weather Stations